Time;durP1;ratioP1;P1;durP2;ratioP2;P2;SDS_P1;SDS_P2;PMS_P1;PMS_P2;Temp;Humidity;BMP_temperature;BMP_pressure;BME280_temperature;BME280_humidity;BME280_pressure;Samples;Min_cycle;Max_cycle;Signal;HPM_P1;HPM_P2
2022/01/10 00:00:32;;;;;;;24.02;4.70;;;7.70;99.90;;;;;;5068332;28;20020;-73
2022/01/10 00:02:59;;;;;;;33.63;4.47;;;7.70;99.90;;;;;;5084725;28;20225;-74
2022/01/10 00:05:25;;;;;;;30.25;4.88;;;7.70;99.90;;;;;;5083385;28;20380;-74
2022/01/10 00:07:51;;;;;;;28.63;5.18;;;7.80;99.90;;;;;;5067684;28;20047;-75
2022/01/10 00:10:18;;;;;;;29.05;4.70;;;7.70;99.90;;;;;;5103507;28;20035;-75
2022/01/10 00:12:44;;;;;;;34.28;4.78;;;7.70;99.90;;;;;;5071919;28;20039;-76
2022/01/10 00:15:10;;;;;;;31.42;5.03;;;7.60;99.90;;;;;;5088774;28;20028;-75
2022/01/10 00:17:38;;;;;;;25.33;4.40;;;7.60;99.90;;;;;;5106729;28;20093;-76
2022/01/10 00:20:10;;;;;;;22.75;4.70;;;7.60;99.90;;;;;;5089214;28;20136;-75
2022/01/10 00:22:36;;;;;;;32.47;4.85;;;7.60;99.90;;;;;;5072154;28;20043;-73
2022/01/10 00:25:03;;;;;;;32.08;4.80;;;7.60;99.90;;;;;;5088874;28;20317;-74
2022/01/10 00:27:30;;;;;;;29.77;4.57;;;7.60;99.90;;;;;;5106540;28;20008;-75
2022/01/10 00:29:56;;;;;;;32.03;4.60;;;7.60;99.90;;;;;;5088249;28;20075;-76
2022/01/10 00:32:24;;;;;;;26.10;4.93;;;7.60;99.90;;;;;;5071719;28;20034;-75
2022/01/10 00:34:51;;;;;;;29.85;4.57;;;7.60;99.90;;;;;;5072204;28;20051;-75
2022/01/10 00:37:17;;;;;;;42.10;4.95;;;7.50;99.90;;;;;;5088126;28;20027;-74
2022/01/10 00:39:44;;;;;;;20.90;4.10;;;7.50;99.90;;;;;;5105042;28;20031;-75
2022/01/10 00:42:09;;;;;;;25.95;5.22;;;7.50;99.90;;;;;;5117001;28;20052;-74
2022/01/10 00:44:40;;;;;;;24.55;4.25;;;7.50;99.90;;;;;;5091540;28;20023;-74
2022/01/10 00:47:05;;;;;;;23.88;4.45;;;7.50;99.90;;;;;;5082110;28;20128;-74
2022/01/10 00:49:31;;;;;;;24.13;4.05;;;7.50;99.90;;;;;;5071322;28;20029;-74
2022/01/10 00:51:57;;;;;;;28.98;4.22;;;7.50;99.90;;;;;;5071582;28;20039;-74
2022/01/10 00:54:22;;;;;;;29.30;5.22;;;7.50;99.90;;;;;;5088177;28;20027;-76
2022/01/10 00:56:48;;;;;;;28.23;3.92;;;7.50;99.90;;;;;;5087871;28;20032;-75
2022/01/10 00:59:14;;;;;;;23.25;4.15;;;7.50;99.90;;;;;;5071118;28;20283;-75
2022/01/10 01:01:40;;;;;;;27.13;4.10;;;7.50;99.90;;;;;;5088028;28;20051;-76
2022/01/10 01:04:06;;;;;;;31.33;4.90;;;7.50;99.90;;;;;;5087835;28;20249;-75
2022/01/10 01:06:32;;;;;;;29.88;4.40;;;7.50;99.90;;;;;;5069541;28;20051;-76
2022/01/10 01:09:06;;;;;;;17.67;4.25;;;7.50;99.90;;;;;;5087678;28;20314;-74
2022/01/10 01:14:38;;;;;;;25.42;4.28;;;7.50;99.90;;;;;;5077173;28;20016;-75
2022/01/10 01:25:22;;;;;;;32.22;4.90;;;7.50;99.90;;;;;;5077756;28;20028;-76
2022/01/10 01:27:51;;;;;;;24.33;4.57;;;7.50;99.90;;;;;;5088530;28;20091;-74
2022/01/10 01:30:17;;;;;;;25.75;5.18;;;7.50;99.90;;;;;;5071940;28;20070;-74
2022/01/10 01:32:43;;;;;;;33.45;5.07;;;7.70;99.90;;;;;;5071903;28;20028;-74
2022/01/10 01:35:09;;;;;;;27.05;4.80;;;7.80;99.90;;;;;;5088245;28;20020;-74
2022/01/10 01:37:37;;;;;;;26.25;4.45;;;7.80;99.90;;;;;;5088231;28;20035;-75
2022/01/10 01:40:05;;;;;;;26.67;4.50;;;7.90;99.90;;;;;;5088139;28;20016;-73
2022/01/10 01:42:41;;;;;;;29.63;5.32;;;7.90;99.90;;;;;;5068281;28;20093;-73
2022/01/10 01:45:11;;;;;;;25.77;4.63;;;8.00;99.90;;;;;;5069685;28;20028;-73
2022/01/10 01:47:38;;;;;;;24.50;3.92;;;8.00;99.90;;;;;;5073950;28;20037;-73
2022/01/10 01:50:06;;;;;;;28.80;5.28;;;7.90;99.90;;;;;;5068118;28;20020;-74
2022/01/10 01:52:33;;;;;;;34.60;4.85;;;7.90;99.90;;;;;;5051838;28;20056;-73
2022/01/10 01:54:59;;;;;;;23.50;4.47;;;7.90;99.90;;;;;;5068001;28;20215;-74
2022/01/10 01:57:26;;;;;;;27.02;5.00;;;8.00;99.90;;;;;;5067865;28;20043;-75
2022/01/10 01:59:52;;;;;;;27.25;4.45;;;8.00;99.90;;;;;;5050987;28;20028;-74
2022/01/10 02:02:19;;;;;;;32.65;5.45;;;8.00;99.90;;;;;;5085696;28;20047;-73
2022/01/10 02:04:44;;;;;;;33.47;4.90;;;8.00;99.90;;;;;;5051347;28;20051;-74
2022/01/10 02:07:10;;;;;;;37.90;5.43;;;8.00;99.90;;;;;;5083942;28;20224;-73
2022/01/10 02:09:36;;;;;;;25.83;4.22;;;8.00;99.90;;;;;;5051100;28;20211;-74
2022/01/10 02:12:02;;;;;;;28.20;4.47;;;8.00;99.90;;;;;;5050942;28;20051;-73
2022/01/10 02:14:28;;;;;;;33.13;5.55;;;8.10;99.90;;;;;;5067736;28;20066;-75
2022/01/10 02:16:55;;;;;;;27.83;5.80;;;8.10;99.90;;;;;;5052032;28;20017;-75
2022/01/10 02:19:22;;;;;;;34.42;6.22;;;8.00;99.90;;;;;;5076357;28;20021;-72
2022/01/10 02:21:48;;;;;;;23.15;4.88;;;8.00;99.90;;;;;;5094557;28;20076;-73
2022/01/10 02:24:14;;;;;;;25.15;5.07;;;7.90;99.90;;;;;;5060791;28;20032;-72
2022/01/10 02:26:39;;;;;;;29.95;5.88;;;7.80;99.90;;;;;;5063314;28;20028;-73
2022/01/10 02:29:07;;;;;;;26.25;4.50;;;7.70;99.90;;;;;;5082415;28;20043;-73
2022/01/10 02:31:39;;;;;;;38.95;5.45;;;7.70;99.90;;;;;;5090330;28;20070;-74
2022/01/10 02:34:05;;;;;;;23.63;5.15;;;7.60;99.90;;;;;;5055813;28;20065;-74
2022/01/10 02:36:30;;;;;;;29.50;5.22;;;7.60;99.90;;;;;;5088936;28;20048;-74
2022/01/10 02:38:59;;;;;;;29.23;4.75;;;7.60;99.90;;;;;;5094449;28;20032;-73
2022/01/10 02:41:34;;;;;;;31.52;5.63;;;7.60;99.90;;;;;;5083339;28;20060;-74
2022/01/10 02:44:03;;;;;;;25.75;5.00;;;7.70;99.90;;;;;;5093921;28;20070;-74
2022/01/10 02:46:32;;;;;;;30.30;4.50;;;7.70;99.90;;;;;;5094977;28;20227;-73
2022/01/10 02:48:58;;;;;;;24.92;3.72;;;7.80;99.90;;;;;;5062179;28;20016;-73
2022/01/10 02:51:24;;;;;;;28.90;4.55;;;7.80;99.90;;;;;;5078099;28;20032;-74
2022/01/10 02:53:49;;;;;;;25.13;3.85;;;7.90;99.90;;;;;;5074717;28;20043;-73
2022/01/10 02:56:15;;;;;;;23.85;4.03;;;8.00;99.90;;;;;;5086564;28;20020;-75
2022/01/10 02:58:41;;;;;;;22.92;3.28;;;8.10;99.90;;;;;;5067275;28;20031;-74
2022/01/10 03:01:07;;;;;;;24.45;3.30;;;8.10;99.90;;;;;;5084291;28;20043;-73
2022/01/10 03:03:33;;;;;;;19.77;3.05;;;8.10;99.90;;;;;;5066754;28;20025;-73
2022/01/10 03:06:02;;;;;;;20.85;4.05;;;8.00;99.90;;;;;;5084047;28;20017;-73
2022/01/10 03:08:28;;;;;;;19.08;3.65;;;8.10;99.90;;;;;;5065242;28;20231;-73
2022/01/10 03:10:55;;;;;;;19.23;3.67;;;8.10;99.90;;;;;;5065949;28;20025;-73
2022/01/10 03:13:21;;;;;;;20.40;3.58;;;8.00;99.90;;;;;;5066256;28;20223;-73
2022/01/10 03:15:47;;;;;;;25.23;4.47;;;8.00;99.90;;;;;;5082963;28;20023;-75
2022/01/10 03:18:13;;;;;;;23.92;4.10;;;8.00;99.90;;;;;;5084409;28;20062;-73
2022/01/10 03:20:39;;;;;;;27.75;4.28;;;7.90;99.90;;;;;;5066337;28;20032;-76
2022/01/10 03:23:05;;;;;;;27.13;4.63;;;7.80;99.90;;;;;;5066273;28;20114;-73
2022/01/10 03:25:31;;;;;;;25.45;4.90;;;7.80;99.90;;;;;;5066537;28;20299;-74
2022/01/10 03:27:57;;;;;;;24.33;4.43;;;7.70;99.90;;;;;;5082790;28;20023;-73
2022/01/10 03:30:22;;;;;;;26.70;4.18;;;7.80;99.90;;;;;;5066071;28;20091;-76
2022/01/10 03:32:51;;;;;;;25.25;4.50;;;7.70;99.90;;;;;;5083134;28;20024;-74
2022/01/10 03:35:17;;;;;;;18.45;4.05;;;7.70;99.90;;;;;;5065938;28;20056;-73
2022/01/10 03:37:43;;;;;;;23.63;3.95;;;7.70;99.90;;;;;;5065760;28;20028;-74
2022/01/10 03:40:09;;;;;;;31.00;6.15;;;7.70;99.90;;;;;;5066118;28;20025;-75
2022/01/10 03:42:35;;;;;;;23.15;4.45;;;7.60;99.90;;;;;;5082469;28;20063;-73
2022/01/10 03:45:03;;;;;;;28.92;4.72;;;7.60;99.90;;;;;;5082195;28;20044;-74
2022/01/10 03:47:29;;;;;;;25.95;4.40;;;7.50;99.90;;;;;;5062305;28;20096;-73
2022/01/10 03:49:54;;;;;;;22.63;4.40;;;7.60;99.90;;;;;;5046112;28;20048;-75
2022/01/10 03:52:20;;;;;;;19.50;4.30;;;7.60;99.90;;;;;;5045690;28;20025;-73
2022/01/10 03:54:45;;;;;;;20.27;4.38;;;7.60;99.90;;;;;;5046223;28;20021;-74
2022/01/10 03:57:11;;;;;;;28.80;4.47;;;7.60;99.90;;;;;;5063626;28;20086;-74
2022/01/10 03:59:37;;;;;;;25.27;4.75;;;7.60;99.90;;;;;;5045921;28;20199;-75
2022/01/10 04:02:04;;;;;;;24.63;5.15;;;7.60;99.90;;;;;;5045886;28;20053;-74
2022/01/10 04:04:30;;;;;;;25.38;4.18;;;7.70;99.90;;;;;;5046286;28;20033;-75
2022/01/10 04:06:56;;;;;;;26.67;5.10;;;7.60;99.90;;;;;;5045806;28;20079;-73
2022/01/10 04:09:22;;;;;;;22.23;5.20;;;7.60;99.90;;;;;;5044628;28;20360;-74
2022/01/10 04:11:51;;;;;;;20.75;4.45;;;7.60;99.90;;;;;;5045818;28;20017;-75
2022/01/10 04:14:16;;;;;;;26.50;4.20;;;7.60;99.90;;;;;;5029374;28;20067;-75
2022/01/10 04:16:42;;;;;;;20.05;3.28;;;7.60;99.90;;;;;;5029396;28;20029;-74
2022/01/10 04:19:08;;;;;;;14.23;3.30;;;7.70;99.90;;;;;;5045902;28;20036;-74
2022/01/10 04:21:34;;;;;;;28.02;4.75;;;7.80;99.90;;;;;;5045749;28;20079;-75
2022/01/10 04:23:59;;;;;;;24.83;4.90;;;7.90;99.90;;;;;;5063471;28;20025;-75
2022/01/10 04:26:25;;;;;;;19.67;5.80;;;8.00;99.90;;;;;;5045605;28;20025;-73
2022/01/10 04:28:51;;;;;;;26.52;5.75;;;8.00;99.90;;;;;;5045780;28;20044;-73
2022/01/10 04:31:18;;;;;;;20.00;5.50;;;8.00;99.90;;;;;;5076252;28;20017;-73
2022/01/10 04:33:44;;;;;;;19.42;5.25;;;8.00;99.90;;;;;;5083362;28;20024;-74
2022/01/10 04:36:10;;;;;;;25.30;4.88;;;8.00;99.90;;;;;;5083185;28;20029;-74
2022/01/10 04:38:36;;;;;;;21.33;5.45;;;8.00;99.90;;;;;;5049211;28;20415;-73
2022/01/10 04:41:03;;;;;;;26.33;5.53;;;8.00;99.90;;;;;;5083488;28;20062;-74
2022/01/10 04:43:30;;;;;;;23.02;5.45;;;7.90;99.90;;;;;;5103252;28;20390;-74
2022/01/10 04:45:56;;;;;;;27.10;5.85;;;7.90;99.90;;;;;;5103576;28;20020;-74
2022/01/10 04:48:22;;;;;;;22.02;5.70;;;7.90;99.90;;;;;;5048906;28;20346;-73
2022/01/10 04:53:34;;;;;;;24.42;5.30;;;7.80;99.90;;;;;;5068386;28;20021;-74
2022/01/10 04:55:59;;;;;;;31.10;6.75;;;7.70;99.90;;;;;;5083121;28;20031;-75
2022/01/10 04:58:25;;;;;;;22.55;5.18;;;7.70;99.90;;;;;;5087069;28;20240;-74
2022/01/10 05:00:53;;;;;;;28.73;5.38;;;7.60;99.90;;;;;;5068948;28;20016;-75
2022/01/10 05:03:20;;;;;;;20.65;4.95;;;7.60;99.90;;;;;;5068722;28;20211;-74
2022/01/10 05:05:48;;;;;;;19.17;5.47;;;7.60;99.90;;;;;;5068538;28;20029;-72
2022/01/10 05:08:14;;;;;;;25.60;5.50;;;7.60;99.90;;;;;;5086850;28;20043;-74
2022/01/10 05:10:41;;;;;;;25.10;5.43;;;7.60;99.90;;;;;;5084889;28;20054;-73
2022/01/10 05:13:07;;;;;;;29.52;5.32;;;7.70;99.90;;;;;;5052322;28;20031;-74
2022/01/10 05:15:33;;;;;;;36.75;5.70;;;7.70;99.90;;;;;;5068630;28;20025;-73
2022/01/10 05:17:58;;;;;;;24.52;6.18;;;7.70;99.90;;;;;;5086397;28;20070;-72
2022/01/10 05:20:24;;;;;;;28.80;6.20;;;7.60;99.90;;;;;;5068764;28;20065;-74
2022/01/10 05:22:49;;;;;;;26.88;6.88;;;7.60;99.90;;;;;;5068704;28;20036;-75
2022/01/10 05:25:15;;;;;;;27.35;6.20;;;7.60;99.90;;;;;;5086369;28;20075;-73
2022/01/10 05:27:41;;;;;;;23.42;5.13;;;7.60;99.90;;;;;;5068625;28;20032;-73
2022/01/10 05:30:08;;;;;;;26.85;5.47;;;7.60;99.90;;;;;;5089682;28;20012;-74
2022/01/10 05:32:33;;;;;;;21.58;5.13;;;7.70;99.90;;;;;;5105345;28;20024;-73
2022/01/10 05:34:59;;;;;;;24.55;4.90;;;7.70;99.90;;;;;;5105336;28;20026;-74
2022/01/10 05:37:27;;;;;;;23.05;4.72;;;7.60;99.90;;;;;;5087870;28;20038;-74
2022/01/10 05:39:53;;;;;;;31.02;5.13;;;7.60;99.90;;;;;;5104986;28;20016;-74
2022/01/10 05:42:20;;;;;;;29.45;4.80;;;7.60;99.90;;;;;;5105046;28;20050;-74
2022/01/10 05:44:45;;;;;;;28.48;5.47;;;7.60;99.90;;;;;;5071735;28;20032;-74
2022/01/10 05:47:11;;;;;;;17.83;4.47;;;7.60;99.90;;;;;;5080717;28;20038;-75
2022/01/10 05:49:45;;;;;;;23.50;4.40;;;7.60;99.90;;;;;;5088409;28;20253;-74
2022/01/10 05:52:10;;;;;;;20.80;4.75;;;7.50;99.90;;;;;;5088076;28;20068;-76
2022/01/10 05:54:36;;;;;;;26.90;5.18;;;7.60;99.90;;;;;;5071277;28;20296;-73
2022/01/10 05:57:03;;;;;;;19.40;4.35;;;7.60;99.90;;;;;;5088127;28;20311;-73
2022/01/10 05:59:29;;;;;;;27.17;6.40;;;7.60;99.90;;;;;;5071366;28;20049;-75
2022/01/10 06:01:57;;;;;;;19.10;4.70;;;7.50;99.90;;;;;;5088214;28;20020;-73
2022/01/10 06:04:30;;;;;;;19.35;4.88;;;7.50;99.90;;;;;;5071341;28;20188;-76
2022/01/10 06:06:56;;;;;;;27.02;4.57;;;7.50;99.90;;;;;;5088125;28;20028;-74
2022/01/10 06:09:22;;;;;;;24.65;4.40;;;7.50;99.90;;;;;;5086948;28;20034;-75
2022/01/10 06:11:47;;;;;;;19.42;3.80;;;7.50;99.90;;;;;;5086082;28;20027;-73
2022/01/10 06:14:13;;;;;;;16.45;4.43;;;7.60;99.90;;;;;;5087473;28;20027;-73
2022/01/10 06:16:39;;;;;;;21.60;3.97;;;7.70;99.90;;;;;;5087579;28;20027;-73
2022/01/10 06:19:04;;;;;;;17.40;4.15;;;7.70;99.90;;;;;;5105588;28;20087;-73
2022/01/10 06:21:30;;;;;;;26.23;4.53;;;7.80;99.90;;;;;;5105061;28;20023;-75
2022/01/10 06:23:56;;;;;;;22.23;4.60;;;7.80;99.90;;;;;;5087031;28;20023;-74
2022/01/10 06:26:22;;;;;;;21.67;4.57;;;7.80;99.90;;;;;;5087237;28;20091;-75
2022/01/10 06:28:47;;;;;;;26.30;5.53;;;7.80;99.90;;;;;;5070724;28;20045;-74
2022/01/10 06:31:13;;;;;;;20.25;5.18;;;7.80;99.90;;;;;;5105197;28;20027;-77
2022/01/10 06:33:39;;;;;;;35.25;5.80;;;7.80;99.90;;;;;;5087374;28;20020;-74
2022/01/10 06:36:08;;;;;;;29.85;5.68;;;7.80;99.90;;;;;;5104864;28;20024;-74
2022/01/10 06:38:35;;;;;;;27.60;5.35;;;7.80;99.90;;;;;;5105004;28;20027;-74
2022/01/10 06:41:01;;;;;;;32.50;5.78;;;7.80;99.90;;;;;;5098602;28;20023;-76
2022/01/10 06:43:27;;;;;;;26.45;5.85;;;7.80;99.90;;;;;;5120051;28;20024;-74
2022/01/10 06:45:53;;;;;;;23.25;5.47;;;7.80;99.90;;;;;;5101243;28;20091;-74
2022/01/10 06:48:18;;;;;;;17.98;5.43;;;7.80;99.90;;;;;;5081731;28;20017;-76
2022/01/10 06:50:47;;;;;;;19.00;5.40;;;7.80;99.90;;;;;;5063180;28;20223;-76
2022/01/10 06:53:14;;;;;;;31.88;6.55;;;7.80;99.90;;;;;;5097596;28;20020;-74
2022/01/10 06:55:40;;;;;;;29.48;6.50;;;7.70;99.90;;;;;;5059288;28;20029;-77
2022/01/10 06:58:06;;;;;;;26.45;6.00;;;7.80;99.90;;;;;;5093475;28;20330;-74
2022/01/10 07:00:32;;;;;;;22.33;5.43;;;7.80;99.90;;;;;;5067286;28;20023;-75
2022/01/10 07:02:57;;;;;;;28.40;5.38;;;7.80;99.90;;;;;;5084199;28;20035;-76
2022/01/10 07:05:23;;;;;;;18.65;5.10;;;7.90;99.90;;;;;;5066216;28;20036;-75
2022/01/10 07:07:49;;;;;;;19.33;4.88;;;7.80;99.90;;;;;;5065949;28;20054;-74
2022/01/10 07:10:14;;;;;;;23.33;5.32;;;7.80;99.90;;;;;;5066607;28;20070;-75
2022/01/10 07:12:40;;;;;;;22.77;5.72;;;7.80;99.90;;;;;;5082627;28;20020;-75
2022/01/10 07:15:06;;;;;;;17.85;5.35;;;7.80;99.90;;;;;;5066241;28;20206;-76
2022/01/10 07:17:33;;;;;;;19.23;5.38;;;7.80;99.90;;;;;;5084076;28;20342;-75
2022/01/10 07:19:59;;;;;;;23.80;7.05;;;7.80;99.90;;;;;;5066298;28;20252;-74
2022/01/10 07:22:25;;;;;;;20.42;6.40;;;7.80;99.90;;;;;;5084289;28;20052;-76
2022/01/10 07:24:51;;;;;;;25.38;5.50;;;7.80;99.90;;;;;;5084102;28;20017;-75
2022/01/10 07:27:17;;;;;;;22.48;5.75;;;7.80;99.90;;;;;;5066279;28;20055;-77
2022/01/10 07:29:43;;;;;;;23.42;5.28;;;7.80;99.90;;;;;;5084063;28;20203;-75
2022/01/10 07:32:08;;;;;;;20.25;6.07;;;7.80;99.90;;;;;;5103255;28;20031;-77
2022/01/10 07:34:36;;;;;;;19.05;5.70;;;7.80;99.90;;;;;;5104168;28;20274;-73
2022/01/10 07:37:02;;;;;;;25.73;5.70;;;7.90;99.90;;;;;;5102940;28;20356;-74
2022/01/10 07:39:28;;;;;;;21.90;5.90;;;7.90;99.90;;;;;;5102634;28;20311;-77
2022/01/10 07:41:53;;;;;;;20.40;6.20;;;7.90;99.90;;;;;;5113060;28;20055;-76
2022/01/10 07:44:19;;;;;;;17.50;5.35;;;7.90;99.90;;;;;;5124633;28;20066;-75
2022/01/10 07:46:45;;;;;;;21.38;6.15;;;7.80;99.90;;;;;;5116647;28;20028;-75
2022/01/10 07:49:10;;;;;;;20.13;6.07;;;7.80;99.90;;;;;;5085591;28;20046;-74
2022/01/10 07:51:36;;;;;;;18.80;5.53;;;7.90;99.90;;;;;;5085341;28;20203;-74
2022/01/10 07:54:02;;;;;;;15.63;5.22;;;7.90;99.90;;;;;;5065503;28;20024;-76
2022/01/10 07:56:28;;;;;;;16.77;5.60;;;8.00;99.90;;;;;;5065539;28;20047;-74
2022/01/10 07:58:53;;;;;;;20.02;5.97;;;8.00;99.90;;;;;;5069403;28;20032;-73
2022/01/10 08:01:20;;;;;;;18.83;5.20;;;8.10;99.90;;;;;;5085869;28;20364;-73
2022/01/10 08:03:47;;;;;;;15.05;5.15;;;8.20;99.90;;;;;;5104096;28;20264;-75
2022/01/10 08:06:13;;;;;;;15.45;4.90;;;8.20;99.90;;;;;;5085423;28;20140;-73
2022/01/10 08:08:39;;;;;;;15.80;5.22;;;8.30;99.90;;;;;;5100816;28;20024;-71
2022/01/10 08:11:05;;;;;;;15.98;5.60;;;8.30;99.90;;;;;;5102034;28;20112;-73
2022/01/10 08:13:30;;;;;;;21.60;5.22;;;8.40;99.90;;;;;;5065833;28;20338;-75
2022/01/10 08:15:56;;;;;;;18.77;5.43;;;8.50;99.90;;;;;;5083875;28;20016;-75
2022/01/10 08:18:22;;;;;;;15.50;5.07;;;8.50;99.90;;;;;;5085612;28;20024;-74
2022/01/10 08:20:47;;;;;;;16.10;4.80;;;8.50;99.90;;;;;;5068559;28;20024;-77
2022/01/10 08:23:13;;;;;;;16.80;5.28;;;8.40;99.90;;;;;;5103945;28;20012;-78
2022/01/10 08:25:39;;;;;;;20.92;5.28;;;8.30;99.90;;;;;;5084750;28;20028;-74
2022/01/10 08:28:05;;;;;;;15.27;5.05;;;8.30;99.90;;;;;;5084594;28;20065;-79
2022/01/10 08:30:31;;;;;;;15.68;5.43;;;8.30;99.90;;;;;;5102954;28;20142;-79
2022/01/10 08:32:57;;;;;;;19.10;5.60;;;8.30;99.90;;;;;;5086975;28;20067;-74
2022/01/10 08:35:23;;;;;;;20.73;5.20;;;8.30;99.90;;;;;;5071818;28;20034;-78
2022/01/10 08:37:50;;;;;;;15.38;4.97;;;8.30;99.90;;;;;;5105570;28;20058;-76
2022/01/10 08:40:16;;;;;;;14.85;5.13;;;8.30;99.90;;;;;;5088761;28;20069;-77
2022/01/10 08:42:41;;;;;;;15.60;5.68;;;8.30;99.90;;;;;;5088638;28;20071;-75
2022/01/10 08:45:08;;;;;;;30.27;5.80;;;8.30;99.90;;;;;;5106145;28;20318;-81
2022/01/10 08:47:35;;;;;;;16.77;6.10;;;8.30;99.90;;;;;;5088822;28;20016;-76
2022/01/10 08:50:01;;;;;;;23.20;5.75;;;8.40;99.90;;;;;;5086177;28;20044;-72
2022/01/10 08:52:27;;;;;;;22.63;5.68;;;8.30;99.90;;;;;;5088502;28;20016;-75
2022/01/10 08:54:53;;;;;;;19.20;6.55;;;8.30;99.90;;;;;;5071653;28;20031;-76
2022/01/10 08:57:19;;;;;;;20.73;5.80;;;8.30;99.90;;;;;;5054964;28;20089;-72
2022/01/10 08:59:45;;;;;;;24.77;6.15;;;8.30;99.90;;;;;;5088309;28;20192;-76
2022/01/10 09:02:11;;;;;;;37.03;8.27;;;8.20;99.90;;;;;;5055058;28;20016;-75
2022/01/10 09:04:37;;;;;;;24.52;6.03;;;8.20;99.90;;;;;;5106560;28;20206;-72
2022/01/10 09:07:05;;;;;;;18.52;7.15;;;8.10;99.90;;;;;;5087796;28;20030;-77
2022/01/10 09:09:32;;;;;;;21.17;6.25;;;8.10;99.90;;;;;;5088294;28;20032;-79
2022/01/10 09:11:57;;;;;;;28.98;10.68;;;8.10;99.90;;;;;;5088579;28;20023;-80
2022/01/10 09:14:23;;;;;;;34.60;8.27;;;8.10;99.90;;;;;;5104261;28;20051;-77
2022/01/10 09:16:49;;;;;;;32.00;8.35;;;8.10;99.90;;;;;;5087898;28;20024;-78
2022/01/10 09:19:14;;;;;;;17.05;6.40;;;8.20;99.90;;;;;;5106686;28;20023;-75
2022/01/10 09:21:43;;;;;;;23.83;6.38;;;8.30;99.90;;;;;;5088588;28;20268;-83
2022/01/10 09:24:09;;;;;;;19.05;6.80;;;8.30;99.90;;;;;;5071284;28;20024;-78
2022/01/10 09:26:35;;;;;;;14.05;6.47;;;8.30;99.90;;;;;;5105773;28;20035;-78
2022/01/10 09:29:00;;;;;;;12.23;5.95;;;8.40;99.90;;;;;;5071599;28;20081;-76
2022/01/10 09:31:26;;;;;;;17.88;7.00;;;8.40;99.90;;;;;;5087960;28;20038;-80
2022/01/10 09:33:55;;;;;;;17.50;5.70;;;8.50;99.90;;;;;;5087518;28;20020;-79
2022/01/10 09:36:25;;;;;;;14.88;5.80;;;8.50;99.90;;;;;;5105322;28;20016;-76
2022/01/10 09:38:51;;;;;;;21.27;7.30;;;8.50;99.90;;;;;;5087084;28;20040;-77
2022/01/10 09:41:17;;;;;;;20.77;5.70;;;8.50;99.90;;;;;;5086900;28;20259;-77
2022/01/10 09:43:53;;;;;;;20.17;7.20;;;8.50;99.90;;;;;;5096120;28;20023;-76
2022/01/10 09:46:19;;;;;;;13.98;6.57;;;8.50;99.90;;;;;;5096066;28;20051;-77
2022/01/10 09:48:45;;;;;;;17.10;6.50;;;8.60;99.90;;;;;;5075717;28;20061;-80
2022/01/10 09:51:12;;;;;;;20.52;7.10;;;8.60;99.90;;;;;;5060410;28;20024;-76
2022/01/10 09:53:37;;;;;;;16.55;6.70;;;8.60;99.90;;;;;;5067359;28;20302;-72
2022/01/10 09:56:04;;;;;;;18.17;6.88;;;8.70;99.90;;;;;;5066937;28;20032;-74
2022/01/10 09:58:29;;;;;;;17.70;7.35;;;8.70;99.90;;;;;;5067106;28;20354;-71
2022/01/10 10:00:57;;;;;;;14.98;7.15;;;8.70;99.90;;;;;;5085344;28;20024;-74
2022/01/10 10:03:24;;;;;;;20.83;7.50;;;8.60;99.90;;;;;;5060334;28;20024;-73
2022/01/10 10:05:54;;;;;;;100.35;12.07;;;8.70;99.90;;;;;;5047028;28;20021;-72
2022/01/10 10:08:22;;;;;;;115.00;14.23;;;8.70;99.90;;;;;;5064864;28;20099;-79
2022/01/10 10:10:49;;;;;;;166.75;19.40;;;8.70;99.90;;;;;;5053095;28;20304;-76
2022/01/10 10:13:16;;;;;;;103.15;13.02;;;8.70;99.90;;;;;;5083236;28;20449;-78
2022/01/10 10:15:44;;;;;;;33.78;6.93;;;8.70;99.90;;;;;;5083403;28;20053;-77
2022/01/10 10:18:12;;;;;;;18.27;6.25;;;8.70;99.90;;;;;;5084904;28;20020;-78
2022/01/10 10:20:40;;;;;;;35.95;7.05;;;8.70;99.90;;;;;;5069861;28;20067;-80
2022/01/10 10:23:07;;;;;;;48.67;8.02;;;8.60;99.90;;;;;;5084915;28;20017;-77
2022/01/10 10:25:33;;;;;;;52.65;8.88;;;8.60;99.90;;;;;;5084995;28;20025;-78
2022/01/10 10:28:00;;;;;;;40.20;7.18;;;8.60;99.90;;;;;;5075715;28;20012;-77
2022/01/10 10:30:30;;;;;;;96.82;11.45;;;8.70;99.90;;;;;;5049956;28;20362;-77
2022/01/10 10:33:18;;;;;;;39.40;7.35;;;8.80;99.90;;;;;;5050521;28;20055;-76
2022/01/10 10:35:54;;;;;;;24.45;6.32;;;8.90;99.90;;;;;;5070982;28;20044;-77
2022/01/10 10:38:20;;;;;;;19.20;5.68;;;9.00;99.90;;;;;;5074652;28;20035;-83
2022/01/10 10:40:45;;;;;;;20.02;5.13;;;8.90;99.90;;;;;;5076524;28;20032;-82
2022/01/10 10:43:12;;;;;;;16.80;5.38;;;9.10;99.90;;;;;;5094902;28;20052;-80
2022/01/10 10:45:38;;;;;;;12.43;4.70;;;9.10;99.90;;;;;;5097313;28;20020;-80
2022/01/10 10:48:07;;;;;;;14.10;4.60;;;9.20;99.90;;;;;;5097214;28;20051;-76
2022/01/10 10:50:42;;;;;;;9.98;4.10;;;9.20;99.90;;;;;;5097727;28;20027;-78
2022/01/10 10:53:10;;;;;;;19.42;4.72;;;9.10;99.90;;;;;;5096870;28;20083;-78
2022/01/10 10:55:39;;;;;;;7.97;3.78;;;9.20;99.90;;;;;;5097543;28;20024;-80
2022/01/10 10:58:08;;;;;;;16.27;4.35;;;9.20;99.90;;;;;;5097802;28;20023;-84
2022/01/10 11:00:35;;;;;;;21.48;5.00;;;9.40;99.90;;;;;;5097178;28;20020;-87
2022/01/10 11:03:01;;;;;;;43.75;6.15;;;9.40;99.90;;;;;;5112372;28;20024;-79
2022/01/10 11:05:27;;;;;;;64.25;7.15;;;9.50;99.90;;;;;;5110260;28;20126;-80
2022/01/10 11:07:53;;;;;;;15.38;4.00;;;9.60;99.90;;;;;;5070007;28;20024;-76
2022/01/10 11:10:19;;;;;;;14.63;3.80;;;9.60;99.90;;;;;;5104099;28;20206;-79
2022/01/10 11:12:52;;;;;;;7.55;2.22;;;9.50;99.90;;;;;;5085701;28;20068;-81
2022/01/10 11:15:17;;;;;;;17.05;3.28;;;9.50;99.90;;;;;;5101667;28;20035;-78
2022/01/10 11:17:43;;;;;;;7.60;2.70;;;9.60;99.90;;;;;;5103589;28;20043;-79
2022/01/10 11:20:18;;;;;;;57.35;6.07;;;9.70;99.90;;;;;;5097893;28;20016;-77
2022/01/10 11:22:48;;;;;;;37.42;4.72;;;9.60;99.90;;;;;;5085880;28;20023;-78
2022/01/10 11:25:36;;;;;;;99.45;9.40;;;9.70;99.90;;;;;;5065738;28;20040;-80
2022/01/10 11:28:06;;;;;;;80.57;7.18;;;9.80;99.90;;;;;;5082567;28;20066;-83
2022/01/10 11:30:45;;;;;;;49.95;6.50;;;9.80;99.90;;;;;;5073583;28;20091;-88
2022/01/10 11:33:18;;;;;;;30.23;4.50;;;9.90;99.90;;;;;;5070068;28;20024;-81
2022/01/10 11:35:48;;;;;;;31.60;4.20;;;10.00;99.90;;;;;;5085541;28;20205;-82
2022/01/10 11:38:51;;;;;;;56.33;6.55;;;10.00;99.90;;;;;;5069547;28;20246;-80
2022/01/10 11:41:18;;;;;;;;;;;10.00;99.90;;;;;;5086038;28;20042;-82
2022/01/10 11:43:50;;;;;;;52.50;4.95;;;10.00;99.90;;;;;;5104009;28;20213;-83
2022/01/10 11:46:36;;;;;;;;;;;10.10;99.90;;;;;;5100010;28;20035;-83
2022/01/10 11:49:21;;;;;;;25.45;3.85;;;10.10;99.90;;;;;;5082647;28;19907;-79
2022/01/10 11:52:01;;;;;;;18.25;3.63;;;10.10;99.90;;;;;;5082177;28;20323;-79
2022/01/10 11:54:44;;;;;;;32.08;4.25;;;10.00;99.90;;;;;;5065348;28;20027;-79
2022/01/10 11:57:13;;;;;;;33.88;4.57;;;10.00;99.90;;;;;;5082918;28;20017;-82
2022/01/10 11:59:43;;;;;;;31.48;4.05;;;9.90;99.90;;;;;;5081309;28;20024;-85
2022/01/10 12:02:14;;;;;;;15.27;3.60;;;10.00;99.90;;;;;;5067246;28;20066;-83
2022/01/10 12:04:43;;;;;;;15.57;3.78;;;10.00;99.90;;;;;;5081815;28;20047;-78
2022/01/10 12:07:14;;;;;;;7.20;2.63;;;10.00;99.90;;;;;;5080778;28;20308;-78
2022/01/10 12:09:40;;;;;;;16.95;4.38;;;10.00;99.90;;;;;;5068886;28;20082;-83
2022/01/10 12:12:09;;;;;;;7.80;3.28;;;9.90;99.90;;;;;;5069363;28;20016;-84
2022/01/10 12:14:34;;;;;;;31.15;5.45;;;10.00;99.90;;;;;;5068680;28;20338;-80
2022/01/10 12:17:01;;;;;;;44.00;5.45;;;10.10;99.90;;;;;;5085139;28;20020;-84
2022/01/10 12:19:28;;;;;;;14.05;2.90;;;10.00;99.90;;;;;;5086394;28;20384;-86
2022/01/10 12:21:55;;;;;;;14.27;3.65;;;10.10;99.90;;;;;;5087398;28;20017;-88
2022/01/10 12:24:21;;;;;;;34.00;4.63;;;10.00;99.90;;;;;;5070352;28;20040;-85
2022/01/10 12:26:48;;;;;;;27.25;3.38;;;10.00;99.90;;;;;;5087102;28;20043;-82
2022/01/10 12:29:15;;;;;;;23.33;3.53;;;10.10;99.90;;;;;;5087360;28;20028;-79
2022/01/10 12:31:44;;;;;;;13.90;2.63;;;10.10;99.90;;;;;;5102443;28;20065;-79
2022/01/10 12:34:12;;;;;;;17.00;2.92;;;10.10;99.90;;;;;;5105954;28;20051;-80
2022/01/10 12:36:39;;;;;;;42.47;5.10;;;10.10;99.90;;;;;;5090447;28;20020;-79
2022/01/10 12:39:11;;;;;;;63.03;6.10;;;10.20;99.90;;;;;;5085192;28;20032;-79
2022/01/10 12:41:37;;;;;;;30.60;3.88;;;10.20;99.90;;;;;;5088873;28;20266;-75
2022/01/10 12:44:03;;;;;;;26.83;4.10;;;10.20;99.90;;;;;;5089231;28;20040;-78
2022/01/10 12:46:32;;;;;;;71.43;8.18;;;10.30;99.90;;;;;;5067081;28;20025;-78
2022/01/10 12:49:02;;;;;;;51.63;6.97;;;10.30;99.90;;;;;;5069471;28;20012;-79
2022/01/10 12:51:34;;;;;;;25.48;4.03;;;10.20;99.90;;;;;;5051967;28;20020;-78
2022/01/10 12:54:00;;;;;;;39.35;3.90;;;10.30;99.90;;;;;;5052564;28;20050;-79
2022/01/10 12:56:25;;;;;;;27.88;3.55;;;10.20;99.90;;;;;;5068588;28;20024;-79
2022/01/10 12:58:51;;;;;;;32.13;4.32;;;10.20;99.90;;;;;;5068149;28;20039;-80